createdAt,value
2022-12-15T00:05:16.859Z,3.47
2022-12-15T00:10:39.277Z,3.10
2022-12-15T00:16:04.256Z,3.80
2022-12-15T00:21:25.263Z,3.00
2022-12-15T00:26:46.221Z,3.10
2022-12-15T00:32:08.596Z,2.90
2022-12-15T00:37:29.768Z,3.53
2022-12-15T00:42:33.315Z,3.20
2022-12-15T00:47:38.386Z,3.10
2022-12-15T00:52:59.399Z,3.37
2022-12-15T00:58:20.350Z,2.87
2022-12-15T01:03:43.821Z,2.60
2022-12-15T01:09:04.769Z,2.73
2022-12-15T01:14:25.812Z,2.60
2022-12-15T01:19:48.258Z,1.70
2022-12-15T01:24:53.261Z,1.70
2022-12-15T01:29:56.727Z,1.70
2022-12-15T01:35:01.640Z,1.40
2022-12-15T01:40:23.635Z,1.93
2022-12-15T01:45:50.572Z,2.30
2022-12-15T01:51:02.283Z,2.27
2022-12-15T01:56:09.377Z,1.83
2022-12-15T02:01:13.600Z,2.00
2022-12-15T02:06:21.719Z,1.97
2022-12-15T02:11:54.448Z,1.80
2022-12-15T02:17:14.480Z,1.97
2022-12-15T02:22:34.109Z,2.07
2022-12-15T02:27:57.869Z,1.40
2022-12-15T02:33:12.487Z,1.50
2022-12-15T02:38:16.036Z,1.53
2022-12-15T02:43:19.694Z,1.30
2022-12-15T02:48:35.372Z,1.13
2022-12-15T02:54:02.607Z,1.10
2022-12-15T02:59:12.011Z,1.23
2022-12-15T03:04:17.725Z,1.70
2022-12-15T03:09:21.415Z,0.90
2022-12-15T03:14:26.135Z,1.70
2022-12-15T03:19:31.294Z,0.87
2022-12-15T03:24:35.090Z,1.40
2022-12-15T03:29:38.690Z,1.70
2022-12-15T03:34:43.749Z,1.40
2022-12-15T03:39:47.899Z,1.63
2022-12-15T03:44:51.445Z,1.90
2022-12-15T03:49:56.498Z,1.87
2022-12-15T03:55:00.056Z,2.30
2022-12-15T04:00:04.441Z,1.73
2022-12-15T04:05:20.399Z,2.00
2022-12-15T04:10:28.718Z,1.43
2022-12-15T04:15:39.098Z,1.37
2022-12-15T04:20:44.086Z,1.50
2022-12-15T04:26:05.207Z,2.03
2022-12-15T04:31:27.992Z,1.33
2022-12-15T04:36:51.716Z,2.40
2022-12-15T04:42:16.477Z,2.30
2022-12-15T04:47:37.612Z,1.50
2022-12-15T04:53:00.193Z,1.53
2022-12-15T04:58:25.523Z,1.20
2022-12-15T05:03:47.285Z,1.10
2022-12-15T05:09:09.976Z,2.67
2022-12-15T05:14:32.216Z,1.60
2022-12-15T05:19:53.902Z,0.60
2022-12-15T05:25:16.475Z,0.63
2022-12-15T05:30:37.837Z,1.33
2022-12-15T05:35:41.722Z,1.60
2022-12-15T05:40:46.968Z,1.60
2022-12-15T05:45:51.372Z,1.53
2022-12-15T05:50:55.272Z,2.00
2022-12-15T05:56:03.810Z,1.80
2022-12-15T06:01:10.140Z,2.17
2022-12-15T06:06:15.030Z,1.17
2022-12-15T06:11:22.224Z,1.77
2022-12-15T06:16:28.042Z,1.60
2022-12-15T06:21:35.310Z,1.43
2022-12-15T06:26:41.368Z,1.80
2022-12-15T06:31:45.535Z,2.30
2022-12-15T06:36:49.275Z,1.40
2022-12-15T06:41:54.471Z,2.13
2022-12-15T06:46:58.240Z,1.97
2022-12-15T06:52:02.157Z,1.37
2022-12-15T06:57:07.431Z,2.30
2022-12-15T07:02:20.070Z,4.70
2022-12-15T07:07:26.682Z,4.33
2022-12-15T07:12:32.083Z,2.37
2022-12-15T07:17:37.118Z,2.90
2022-12-15T07:22:40.724Z,2.20
2022-12-15T07:27:45.932Z,2.00
2022-12-15T07:32:50.267Z,2.60
2022-12-15T07:37:54.457Z,2.63
2022-12-15T07:42:59.448Z,2.70
2022-12-15T07:48:05.366Z,1.23
2022-12-15T07:53:08.997Z,1.40
2022-12-15T07:58:14.318Z,2.00
2022-12-15T08:03:19.041Z,2.63
2022-12-15T08:08:23.457Z,2.23
2022-12-15T08:14:00.776Z,2.67
2022-12-15T08:18:52.308Z,2.80
2022-12-15T08:23:55.884Z,5.97
2022-12-15T08:29:31.881Z,7.57
2022-12-15T08:34:27.708Z,12.43
2022-12-15T08:39:32.090Z,21.47
2022-12-15T08:44:37.840Z,16.53
2022-12-15T08:49:41.573Z,15.47
2022-12-15T08:54:45.281Z,17.07
2022-12-15T08:59:50.429Z,17.27
2022-12-15T09:04:54.539Z,19.83
2022-12-15T09:09:58.335Z,49.20
2022-12-15T09:15:03.309Z,18.10
2022-12-15T09:20:09.100Z,13.40
2022-12-15T09:25:12.846Z,13.07
2022-12-15T09:30:18.093Z,15.23
2022-12-15T09:35:22.124Z,7.93
2022-12-15T09:40:26.595Z,7.57
2022-12-15T09:45:38.402Z,11.90
2022-12-15T09:50:44.286Z,13.67
2022-12-15T09:56:04.515Z,8.07
2022-12-15T10:01:18.100Z,9.30
2022-12-15T10:06:32.763Z,8.10
2022-12-15T10:17:24.042Z,12.83
2022-12-15T10:22:31.212Z,6.17
2022-12-15T10:27:55.657Z,5.93
2022-12-15T10:33:04.002Z,30.73
2022-12-15T10:38:23.318Z,10.73
2022-12-15T10:43:30.537Z,5.80
2022-12-15T10:48:36.595Z,3.10
2022-12-15T10:53:42.675Z,1.87
2022-12-15T10:58:50.049Z,1.90
2022-12-15T11:03:56.257Z,1.30
2022-12-15T11:09:10.546Z,2.43
2022-12-15T11:14:17.114Z,1.90
2022-12-15T11:19:32.644Z,2.47
2022-12-15T11:24:41.496Z,2.27
2022-12-15T11:29:56.495Z,2.43
2022-12-15T11:35:01.879Z,2.37
2022-12-15T11:40:28.495Z,2.10
2022-12-15T11:45:42.858Z,1.93
2022-12-15T11:50:56.924Z,1.90
2022-12-15T11:56:09.711Z,2.10
2022-12-15T12:01:26.289Z,1.07
2022-12-15T12:06:35.858Z,1.60
2022-12-15T12:17:19.099Z,1.80
2022-12-15T12:22:29.696Z,1.60
2022-12-15T12:27:41.268Z,2.30
2022-12-15T12:32:54.954Z,5.77
2022-12-15T12:38:03.944Z,8.57
2022-12-15T12:43:13.657Z,6.83
2022-12-15T12:48:23.507Z,6.27
2022-12-15T12:53:34.117Z,15.07
2022-12-15T12:58:41.407Z,12.03
2022-12-15T13:03:45.085Z,7.40
2022-12-15T13:08:52.642Z,3.53
2022-12-15T13:13:56.493Z,2.43
2022-12-15T13:19:03.642Z,2.30
2022-12-15T13:24:23.626Z,3.67
2022-12-15T13:29:27.375Z,3.70
2022-12-15T13:34:38.717Z,3.20
2022-12-15T13:39:59.342Z,2.83
2022-12-15T13:45:31.425Z,3.40
2022-12-15T13:50:51.324Z,2.37
2022-12-15T13:56:05.355Z,3.07
2022-12-15T14:01:24.009Z,2.80
2022-12-15T14:06:41.202Z,3.90
2022-12-15T14:11:53.538Z,3.47
2022-12-15T14:17:00.791Z,5.10
2022-12-15T14:22:04.530Z,2.70
2022-12-15T14:27:09.929Z,3.40
2022-12-15T14:32:13.799Z,5.03
2022-12-15T14:37:21.255Z,4.20
2022-12-15T14:42:29.645Z,3.30
2022-12-15T14:47:36.458Z,3.07
2022-12-15T14:52:42.833Z,3.33
2022-12-15T14:57:48.773Z,3.53
2022-12-15T15:03:06.437Z,5.23
2022-12-15T15:03:07.047Z,1.97
2022-12-15T15:03:20.019Z,3.43
2022-12-15T15:08:29.353Z,2.93
2022-12-15T15:13:40.115Z,3.10
2022-12-15T15:18:45.118Z,2.87
2022-12-15T15:24:02.695Z,2.50
2022-12-15T15:29:37.850Z,2.53
2022-12-15T15:34:41.730Z,5.70
2022-12-15T15:39:45.675Z,5.67
2022-12-15T15:44:50.587Z,6.30
2022-12-15T15:49:55.862Z,5.10
2022-12-15T15:55:00.175Z,4.90
2022-12-15T16:00:16.994Z,5.03
2022-12-15T16:05:21.097Z,4.53
2022-12-15T16:10:25.202Z,4.70
2022-12-15T16:15:32.835Z,5.53
2022-12-15T16:20:39.795Z,5.13
2022-12-15T16:25:50.518Z,6.03
2022-12-15T16:30:58.467Z,6.10
2022-12-15T16:36:02.543Z,7.67
2022-12-15T16:41:08.593Z,6.70
2022-12-15T16:46:15.858Z,6.73
2022-12-15T16:51:32.444Z,6.97
2022-12-15T16:56:35.942Z,8.20
2022-12-15T17:01:41.477Z,7.10
2022-12-15T17:06:45.105Z,7.00
2022-12-15T17:11:49.106Z,7.07
2022-12-15T17:16:57.034Z,6.60
2022-12-15T17:22:03.521Z,6.70
2022-12-15T17:27:07.876Z,5.63
2022-12-15T17:32:14.108Z,7.27
2022-12-15T17:37:19.040Z,6.10
2022-12-15T17:42:22.672Z,12.17
2022-12-15T17:47:30.724Z,7.43
2022-12-15T17:52:35.613Z,11.10
2022-12-15T17:57:39.625Z,7.67
2022-12-15T18:02:45.259Z,7.90
2022-12-15T18:07:53.163Z,24.30
2022-12-15T18:12:57.215Z,11.90
2022-12-15T18:18:02.681Z,16.47
2022-12-15T18:23:14.447Z,8.33
2022-12-15T18:28:22.108Z,9.20
2022-12-15T18:33:30.402Z,7.10
2022-12-15T18:38:34.567Z,5.67
2022-12-15T18:43:38.519Z,5.57
2022-12-15T18:48:44.695Z,6.10
2022-12-15T18:53:49.480Z,5.73
2022-12-15T18:58:53.159Z,5.53
2022-12-15T19:03:58.186Z,5.83
2022-12-15T19:09:03.273Z,5.77
2022-12-15T19:14:35.350Z,5.07
2022-12-15T19:19:58.065Z,5.07
2022-12-15T19:25:03.759Z,4.77
2022-12-15T19:30:15.606Z,4.97
2022-12-15T19:35:21.350Z,4.63
2022-12-15T19:40:27.665Z,3.90
2022-12-15T19:45:36.615Z,5.93
2022-12-15T19:50:43.867Z,5.93
2022-12-15T19:55:48.544Z,5.63
2022-12-15T20:00:52.994Z,6.40
2022-12-15T20:06:00.214Z,7.13
2022-12-15T20:11:04.328Z,5.63
2022-12-15T20:16:09.165Z,9.00
2022-12-15T20:21:21.903Z,11.23
2022-12-15T20:26:27.435Z,8.60
2022-12-15T20:31:32.113Z,9.73
2022-12-15T20:36:39.254Z,8.77
2022-12-15T20:41:43.056Z,7.07
2022-12-15T20:46:47.694Z,7.13
2022-12-15T20:51:53.077Z,6.33
2022-12-15T20:56:56.574Z,6.60
2022-12-15T21:02:00.804Z,7.37
2022-12-15T21:07:10.843Z,6.40
2022-12-15T21:12:19.498Z,5.57
2022-12-15T21:17:25.696Z,6.93
2022-12-15T21:22:30.635Z,7.13
2022-12-15T21:27:34.386Z,6.60
2022-12-15T21:32:38.131Z,6.70
2022-12-15T21:37:44.324Z,6.73
2022-12-15T21:42:50.067Z,6.10
2022-12-15T21:48:12.949Z,5.67
2022-12-15T21:53:19.028Z,8.10
2022-12-15T21:58:28.112Z,7.57
2022-12-15T22:03:31.907Z,7.70
2022-12-15T22:08:37.047Z,7.30
2022-12-15T22:13:40.716Z,6.70
2022-12-15T22:18:44.478Z,9.13
2022-12-15T22:23:50.878Z,8.77
2022-12-15T22:28:56.432Z,8.50
2022-12-15T22:34:00.088Z,9.03
2022-12-15T22:39:08.226Z,8.00
2022-12-15T22:44:17.946Z,6.03
2022-12-15T22:49:24.292Z,7.30
2022-12-15T22:54:30.899Z,7.37
2022-12-15T22:59:41.229Z,7.73
2022-12-15T23:04:45.072Z,6.30
2022-12-15T23:10:10.144Z,7.90
2022-12-15T23:15:31.745Z,5.57
2022-12-15T23:20:35.754Z,5.80
2022-12-15T23:25:40.945Z,5.00
2022-12-15T23:30:49.926Z,4.77
2022-12-15T23:35:54.880Z,3.70
2022-12-15T23:41:00.626Z,3.70
2022-12-15T23:46:07.084Z,4.07
2022-12-15T23:51:14.204Z,2.77
2022-12-15T23:56:22.431Z,2.63
